createdAt,value
2023-05-14T00:00:39.401Z,1021.99
2023-05-14T00:01:39.572Z,1021.96
2023-05-14T00:02:39.774Z,1021.99
2023-05-14T00:03:39.974Z,1021.97
2023-05-14T00:04:40.168Z,1021.98
2023-05-14T00:05:40.287Z,1021.97
2023-05-14T00:06:40.452Z,1021.98
2023-05-14T00:07:40.610Z,1021.93
2023-05-14T00:08:40.767Z,1021.92
2023-05-14T00:09:40.960Z,1021.92
2023-05-14T00:10:41.132Z,1021.92
2023-05-14T00:11:41.330Z,1021.89
2023-05-14T00:12:41.488Z,1021.90
2023-05-14T00:13:41.637Z,1021.86
2023-05-14T00:14:41.816Z,1021.88
2023-05-14T00:15:42.019Z,1021.87
2023-05-14T00:16:42.153Z,1021.89
2023-05-14T00:17:42.362Z,1021.86
2023-05-14T00:18:42.537Z,1021.86
2023-05-14T00:19:42.671Z,1021.85
2023-05-14T00:20:42.847Z,1021.80
2023-05-14T00:21:43.015Z,1021.81
2023-05-14T00:22:43.170Z,1021.84
2023-05-14T00:23:43.378Z,1021.84
2023-05-14T00:24:43.565Z,1021.81
2023-05-14T00:25:43.736Z,1021.80
2023-05-14T00:26:43.885Z,1021.81
2023-05-14T00:27:44.098Z,1021.82
2023-05-14T00:28:44.243Z,1021.79
2023-05-14T00:29:44.416Z,1021.74
2023-05-14T00:30:44.575Z,1021.75
2023-05-14T00:31:44.898Z,1021.77
2023-05-14T00:32:44.980Z,1021.77
2023-05-14T00:33:45.142Z,1021.74
2023-05-14T00:34:45.297Z,1021.72
2023-05-14T00:35:45.502Z,1021.67
2023-05-14T00:36:45.663Z,1021.71
2023-05-14T00:37:45.861Z,1021.67
2023-05-14T00:38:46.026Z,1021.70
2023-05-14T00:39:46.190Z,1021.66
2023-05-14T00:40:46.354Z,1021.70
2023-05-14T00:41:46.537Z,1021.69
2023-05-14T00:42:46.694Z,1021.71
2023-05-14T00:43:46.943Z,1021.65
2023-05-14T00:44:47.055Z,1021.70
2023-05-14T00:45:47.253Z,1021.69
2023-05-14T00:46:47.440Z,1021.69
2023-05-14T00:47:47.639Z,1021.64
2023-05-14T00:48:47.758Z,1021.65
2023-05-14T00:49:47.923Z,1021.65
2023-05-14T00:50:48.070Z,1021.66
2023-05-14T00:51:48.236Z,1021.67
2023-05-14T00:52:48.409Z,1021.63
2023-05-14T00:53:48.575Z,1021.67
2023-05-14T00:54:48.736Z,1021.69
2023-05-14T00:55:48.936Z,1021.66
2023-05-14T00:56:49.092Z,1021.65
2023-05-14T00:57:49.300Z,1021.68
2023-05-14T00:58:49.459Z,1021.64
2023-05-14T00:59:49.650Z,1021.63
2023-05-14T01:00:49.849Z,1021.64
2023-05-14T01:01:49.961Z,1021.66
2023-05-14T01:02:50.224Z,1021.67
2023-05-14T01:03:50.391Z,1021.63
2023-05-14T01:04:50.470Z,1021.65
2023-05-14T01:05:50.681Z,1021.64
2023-05-14T01:06:50.833Z,1021.64
2023-05-14T01:07:51.049Z,1021.59
2023-05-14T01:08:51.202Z,1021.64
2023-05-14T01:09:51.386Z,1021.60
2023-05-14T01:10:51.557Z,1021.61
2023-05-14T01:11:51.717Z,1021.61
2023-05-14T01:12:51.855Z,1021.63
2023-05-14T01:13:52.044Z,1021.61
2023-05-14T01:14:52.256Z,1021.61
2023-05-14T01:15:52.429Z,1021.57
2023-05-14T01:16:52.618Z,1021.60
2023-05-14T01:17:52.834Z,1021.59
2023-05-14T01:18:52.980Z,1021.60
2023-05-14T01:19:53.096Z,1021.59
2023-05-14T01:20:53.277Z,1021.62
2023-05-14T01:21:53.431Z,1021.61
2023-05-14T01:22:53.619Z,1021.61
2023-05-14T01:23:53.820Z,1021.59
2023-05-14T01:24:53.974Z,1021.64
2023-05-14T01:25:54.185Z,1021.61
2023-05-14T01:26:54.352Z,1021.60
2023-05-14T01:27:54.542Z,1021.64
2023-05-14T01:28:54.750Z,1021.64
2023-05-14T01:29:54.915Z,1021.58
2023-05-14T01:30:55.103Z,1021.59
2023-05-14T01:31:55.346Z,1021.60
2023-05-14T01:32:55.566Z,1021.59
2023-05-14T01:33:55.648Z,1021.59
2023-05-14T01:34:55.828Z,1021.56
2023-05-14T01:35:55.998Z,1021.59
2023-05-14T01:36:56.144Z,1021.58
2023-05-14T01:37:56.340Z,1021.57
2023-05-14T01:38:56.507Z,1021.54
2023-05-14T01:39:56.711Z,1021.53
2023-05-14T01:40:56.860Z,1021.50
2023-05-14T01:41:57.018Z,1021.51
2023-05-14T01:42:57.210Z,1021.48
2023-05-14T01:43:57.361Z,1021.49
2023-05-14T01:44:57.530Z,1021.44
2023-05-14T01:45:57.727Z,1021.47
2023-05-14T01:46:57.873Z,1021.42
2023-05-14T01:47:58.136Z,1021.46
2023-05-14T01:48:58.238Z,1021.43
2023-05-14T01:49:58.401Z,1021.40
2023-05-14T01:50:58.630Z,1021.39
2023-05-14T01:51:58.732Z,1021.38
2023-05-14T01:52:58.894Z,1021.41
2023-05-14T01:53:59.070Z,1021.36
2023-05-14T01:54:59.240Z,1021.39
2023-05-14T01:55:59.388Z,1021.39
2023-05-14T01:56:59.563Z,1021.41
2023-05-14T01:57:59.779Z,1021.46
2023-05-14T01:58:59.904Z,1021.43
2023-05-14T02:00:00.068Z,1021.45
2023-05-14T02:01:00.280Z,1021.42
2023-05-14T02:02:00.599Z,1021.47
2023-05-14T02:03:00.699Z,1021.48
2023-05-14T02:04:00.779Z,1021.48
2023-05-14T02:05:01.069Z,1021.45
2023-05-14T02:06:01.100Z,1021.47
2023-05-14T02:07:01.321Z,1021.48
2023-05-14T02:08:01.478Z,1021.49
2023-05-14T02:09:01.644Z,1021.47
2023-05-14T02:10:01.806Z,1021.50
2023-05-14T02:11:01.974Z,1021.42
2023-05-14T02:12:02.165Z,1021.48
2023-05-14T02:13:02.313Z,1021.48
2023-05-14T02:14:02.508Z,1021.51
2023-05-14T02:15:02.649Z,1021.47
2023-05-14T02:16:02.950Z,1021.47
2023-05-14T02:17:03.024Z,1021.45
2023-05-14T02:18:03.213Z,1021.45
2023-05-14T02:19:03.398Z,1021.42
2023-05-14T02:20:03.545Z,1021.42
2023-05-14T02:21:03.718Z,1021.41
2023-05-14T02:22:03.877Z,1021.38
2023-05-14T02:23:04.064Z,1021.44
2023-05-14T02:24:04.211Z,1021.38
2023-05-14T02:25:04.419Z,1021.39
2023-05-14T02:26:04.589Z,1021.40
2023-05-14T02:27:04.764Z,1021.35
2023-05-14T02:28:04.901Z,1021.38
2023-05-14T02:29:05.110Z,1021.41
2023-05-14T02:30:05.282Z,1021.40
2023-05-14T02:31:05.510Z,1021.39
2023-05-14T02:32:05.660Z,1021.39
2023-05-14T02:33:05.874Z,1021.37
2023-05-14T02:34:05.954Z,1021.40
2023-05-14T02:35:06.134Z,1021.41
2023-05-14T02:36:06.312Z,1021.38
2023-05-14T02:37:06.488Z,1021.39
2023-05-14T02:38:06.638Z,1021.39
2023-05-14T02:39:06.806Z,1021.42
2023-05-14T02:40:06.986Z,1021.37
2023-05-14T02:41:07.143Z,1021.41
2023-05-14T02:42:07.301Z,1021.41
2023-05-14T02:43:07.492Z,1021.42
2023-05-14T02:44:07.654Z,1021.40
2023-05-14T02:45:07.864Z,1021.36
2023-05-14T02:46:08.047Z,1021.39
2023-05-14T02:47:08.281Z,1021.35
2023-05-14T02:48:08.466Z,1021.36
2023-05-14T02:49:08.577Z,1021.39
2023-05-14T02:50:08.759Z,1021.38
2023-05-14T02:51:08.917Z,1021.34
2023-05-14T02:52:09.096Z,1021.32
2023-05-14T02:53:09.294Z,1021.33
2023-05-14T02:54:09.490Z,1021.34
2023-05-14T02:55:09.650Z,1021.33
2023-05-14T02:56:09.777Z,1021.30
2023-05-14T02:57:09.961Z,1021.32
2023-05-14T02:58:10.142Z,1021.35
2023-05-14T02:59:10.362Z,1021.35
2023-05-14T03:00:10.472Z,1021.36
2023-05-14T03:01:10.691Z,1021.31
2023-05-14T03:02:10.879Z,1021.34
2023-05-14T03:03:11.099Z,1021.36
2023-05-14T03:04:11.190Z,1021.35
2023-05-14T03:05:11.362Z,1021.38
2023-05-14T03:06:11.539Z,1021.36
2023-05-14T03:07:11.728Z,1021.31
2023-05-14T03:08:11.922Z,1021.38
2023-05-14T03:09:12.097Z,1021.38
2023-05-14T03:10:12.292Z,1021.34
2023-05-14T03:11:12.469Z,1021.37
2023-05-14T03:12:12.672Z,1021.41
2023-05-14T03:13:12.843Z,1021.38
2023-05-14T03:14:13.034Z,1021.37
2023-05-14T03:15:13.219Z,1021.38
2023-05-14T03:16:13.414Z,1021.37
2023-05-14T03:17:13.590Z,1021.39
2023-05-14T03:18:13.703Z,1021.37
2023-05-14T03:19:13.995Z,1021.39
2023-05-14T03:20:14.086Z,1021.37
2023-05-14T03:21:14.230Z,1021.40
2023-05-14T03:22:14.425Z,1021.37
2023-05-14T03:23:14.610Z,1021.34
2023-05-14T03:24:14.772Z,1021.37
2023-05-14T03:25:14.931Z,1021.37
2023-05-14T03:26:15.101Z,1021.33
2023-05-14T03:27:15.305Z,1021.33
2023-05-14T03:28:15.482Z,1021.31
2023-05-14T03:29:15.661Z,1021.33
2023-05-14T03:30:15.832Z,1021.29
2023-05-14T03:31:16.004Z,1021.29
2023-05-14T03:32:16.168Z,1021.30
2023-05-14T03:33:16.354Z,1021.28
2023-05-14T03:34:16.523Z,1021.34
2023-05-14T03:35:16.701Z,1021.29
2023-05-14T03:36:16.908Z,1021.29
2023-05-14T03:37:17.050Z,1021.32
2023-05-14T03:38:17.215Z,1021.30
2023-05-14T03:39:17.379Z,1021.30
2023-05-14T03:40:17.541Z,1021.26
2023-05-14T03:41:17.733Z,1021.28
2023-05-14T03:42:17.867Z,1021.25
2023-05-14T03:43:18.039Z,1021.20
2023-05-14T03:44:18.192Z,1021.22
2023-05-14T03:45:18.371Z,1021.19
2023-05-14T03:46:18.550Z,1021.21
2023-05-14T03:47:18.716Z,1021.21
2023-05-14T03:48:18.967Z,1021.19
2023-05-14T03:49:19.102Z,1021.21
2023-05-14T03:50:19.286Z,1021.17
2023-05-14T03:51:19.459Z,1021.19
2023-05-14T03:52:19.642Z,1021.23
2023-05-14T03:53:19.826Z,1021.23
2023-05-14T03:54:20.028Z,1021.23
2023-05-14T03:55:20.182Z,1021.26
2023-05-14T03:56:20.340Z,1021.24
2023-05-14T03:57:20.518Z,1021.22
2023-05-14T03:58:20.686Z,1021.20
2023-05-14T03:59:20.862Z,1021.20
2023-05-14T04:00:21.208Z,1021.19
2023-05-14T04:01:21.210Z,1021.19
2023-05-14T04:02:21.488Z,1021.18
2023-05-14T04:03:21.662Z,1021.19
2023-05-14T04:04:21.802Z,1021.19
2023-05-14T04:05:21.978Z,1021.18
2023-05-14T04:06:22.110Z,1021.21
2023-05-14T04:07:22.280Z,1021.18
2023-05-14T04:08:22.471Z,1021.18
2023-05-14T04:09:22.638Z,1021.21
2023-05-14T04:10:22.967Z,1021.21
2023-05-14T04:11:23.005Z,1021.17
2023-05-14T04:12:23.169Z,1021.15
2023-05-14T04:13:23.350Z,1021.14
2023-05-14T04:14:23.502Z,1021.16
2023-05-14T04:15:23.667Z,1021.15
2023-05-14T04:16:23.918Z,1021.14
2023-05-14T04:17:24.118Z,1021.12
2023-05-14T04:18:24.218Z,1021.13
2023-05-14T04:19:24.418Z,1021.07
2023-05-14T04:20:24.702Z,1021.10
2023-05-14T04:21:24.751Z,1021.07
2023-05-14T04:22:24.925Z,1021.07
2023-05-14T04:23:25.117Z,1021.07
2023-05-14T04:24:25.260Z,1021.09
2023-05-14T04:25:25.416Z,1021.05
2023-05-14T04:26:25.600Z,1021.02
2023-05-14T04:27:25.768Z,1020.99
2023-05-14T04:28:25.958Z,1020.97
2023-05-14T04:29:26.137Z,1020.99
2023-05-14T04:30:26.369Z,1020.93
2023-05-14T04:31:26.539Z,1020.96
2023-05-14T04:32:26.712Z,1020.96
2023-05-14T04:33:26.841Z,1020.96
2023-05-14T04:34:27.017Z,1020.97
2023-05-14T04:35:27.183Z,1020.96
2023-05-14T04:36:27.384Z,1020.95
2023-05-14T04:37:27.535Z,1020.95
2023-05-14T04:38:27.714Z,1020.95
2023-05-14T04:39:27.880Z,1020.97
2023-05-14T04:40:28.045Z,1020.94
2023-05-14T04:41:28.241Z,1020.94
2023-05-14T04:42:28.411Z,1020.96
2023-05-14T04:43:28.568Z,1020.98
2023-05-14T04:44:28.736Z,1020.98
2023-05-14T04:45:28.906Z,1020.98
2023-05-14T04:46:29.155Z,1020.96
2023-05-14T04:47:29.273Z,1021.00
2023-05-14T04:48:29.446Z,1021.00
2023-05-14T04:49:29.626Z,1020.99
2023-05-14T04:50:29.792Z,1020.95
2023-05-14T04:51:29.965Z,1020.92
2023-05-14T04:52:30.127Z,1020.97
2023-05-14T04:53:30.291Z,1020.98
2023-05-14T04:54:30.494Z,1020.96
2023-05-14T04:55:30.655Z,1020.97
2023-05-14T04:56:30.829Z,1020.96
2023-05-14T04:57:30.998Z,1020.95
2023-05-14T04:58:32.789Z,1020.95
2023-05-14T04:59:31.383Z,1020.97
2023-05-14T05:00:31.549Z,1021.01
2023-05-14T05:01:31.736Z,1020.96
2023-05-14T05:02:31.903Z,1020.98
2023-05-14T05:03:32.098Z,1020.96
2023-05-14T05:04:32.230Z,1020.97
2023-05-14T05:05:32.410Z,1020.90
2023-05-14T05:06:32.581Z,1020.91
2023-05-14T05:07:32.761Z,1020.87
2023-05-14T05:08:32.933Z,1020.91
2023-05-14T05:09:33.121Z,1020.87
2023-05-14T05:10:33.296Z,1020.88
2023-05-14T05:11:33.483Z,1020.94
2023-05-14T05:12:33.645Z,1020.90
2023-05-14T05:13:33.835Z,1020.91
2023-05-14T05:14:34.030Z,1020.85
2023-05-14T05:15:34.193Z,1020.92
2023-05-14T05:16:34.602Z,1020.88
2023-05-14T05:17:34.607Z,1020.87
2023-05-14T05:18:34.757Z,1020.88
2023-05-14T05:19:43.027Z,1020.89
2023-05-14T05:20:36.090Z,1020.86
2023-05-14T05:21:35.270Z,1020.82
2023-05-14T05:22:35.418Z,1020.78
2023-05-14T05:23:35.605Z,1020.81
2023-05-14T05:24:35.728Z,1020.78
2023-05-14T05:25:35.995Z,1020.78
2023-05-14T05:26:36.064Z,1020.77
2023-05-14T05:27:36.253Z,1020.78
2023-05-14T05:28:36.397Z,1020.77
2023-05-14T05:29:36.586Z,1020.72
2023-05-14T05:30:36.731Z,1020.68
2023-05-14T05:31:36.969Z,1020.72
2023-05-14T05:32:37.090Z,1020.75
2023-05-14T05:33:37.260Z,1020.72
2023-05-14T05:34:37.426Z,1020.74
2023-05-14T05:35:37.624Z,1020.76
2023-05-14T05:36:37.770Z,1020.72
2023-05-14T05:37:37.954Z,1020.70
2023-05-14T05:38:38.105Z,1020.70
2023-05-14T05:39:38.306Z,1020.70
2023-05-14T05:40:38.457Z,1020.68
2023-05-14T05:41:38.660Z,1020.71
2023-05-14T05:42:38.815Z,1020.65
2023-05-14T05:43:38.984Z,1020.63
2023-05-14T05:44:39.156Z,1020.66
2023-05-14T05:45:39.338Z,1020.65
2023-05-14T05:46:39.627Z,1020.66
2023-05-14T05:47:39.734Z,1020.66
2023-05-14T05:48:39.889Z,1020.66
2023-05-14T05:49:40.082Z,1020.68
2023-05-14T05:50:40.245Z,1020.62
2023-05-14T05:51:40.438Z,1020.62
2023-05-14T05:52:40.619Z,1020.60
2023-05-14T05:53:40.822Z,1020.59
2023-05-14T05:54:40.983Z,1020.59
2023-05-14T05:55:41.184Z,1020.62
2023-05-14T05:56:41.327Z,1020.65
2023-05-14T05:57:41.496Z,1020.62
2023-05-14T05:58:41.685Z,1020.59
2023-05-14T05:59:41.843Z,1020.60
2023-05-14T06:00:42.028Z,1020.56
2023-05-14T06:01:42.215Z,1020.55
2023-05-14T06:02:42.508Z,1020.51
2023-05-14T06:03:42.540Z,1020.56
2023-05-14T06:04:42.749Z,1020.57
2023-05-14T06:05:42.941Z,1020.57
2023-05-14T06:06:43.062Z,1020.64
2023-05-14T06:07:43.246Z,1020.62
2023-05-14T06:08:43.444Z,1020.63
2023-05-14T06:09:43.624Z,1020.64
2023-05-14T06:10:44.215Z,1020.61
2023-05-14T06:11:43.950Z,1020.67
2023-05-14T06:12:44.142Z,1020.62
2023-05-14T06:13:44.311Z,1020.53
2023-05-14T06:14:44.448Z,1020.58
2023-05-14T06:15:44.634Z,1020.57
2023-05-14T06:16:44.876Z,1020.54
2023-05-14T06:17:45.018Z,1020.55
2023-05-14T06:18:45.189Z,1020.51
2023-05-14T06:19:45.299Z,1020.54
2023-05-14T06:20:45.466Z,1020.57
2023-05-14T06:21:45.646Z,1020.61
2023-05-14T06:22:45.837Z,1020.53
2023-05-14T06:23:46.028Z,1020.51
2023-05-14T06:24:46.179Z,1020.46
2023-05-14T06:25:46.739Z,1020.47
2023-05-14T06:26:46.482Z,1020.51
2023-05-14T06:27:46.673Z,1020.51
2023-05-14T06:28:46.809Z,1020.56
2023-05-14T06:29:46.995Z,1020.57
2023-05-14T06:30:47.162Z,1020.57
2023-05-14T06:31:47.387Z,1020.58
2023-05-14T06:32:47.551Z,1020.61
2023-05-14T06:33:47.705Z,1020.56
2023-05-14T06:34:47.874Z,1020.56
2023-05-14T06:35:48.052Z,1020.56
2023-05-14T06:36:48.210Z,1020.54
2023-05-14T06:37:48.414Z,1020.59
2023-05-14T06:38:48.579Z,1020.56
2023-05-14T06:39:48.742Z,1020.57
2023-05-14T06:40:48.918Z,1020.53
2023-05-14T06:41:49.091Z,1020.56
2023-05-14T06:42:49.242Z,1020.56
2023-05-14T06:43:49.459Z,1020.54
2023-05-14T06:44:49.624Z,1020.63
2023-05-14T06:45:49.806Z,1020.53
2023-05-14T06:46:49.973Z,1020.57
2023-05-14T06:47:50.205Z,1020.51
2023-05-14T06:48:50.394Z,1020.54
2023-05-14T06:49:50.501Z,1020.55
2023-05-14T06:50:50.674Z,1020.59
2023-05-14T06:51:50.825Z,1020.59
2023-05-14T06:52:50.979Z,1020.57
2023-05-14T06:53:51.201Z,1020.60
2023-05-14T06:54:51.330Z,1020.57
2023-05-14T06:55:51.511Z,1020.59
2023-05-14T06:56:51.701Z,1020.53
2023-05-14T06:57:51.834Z,1020.57
2023-05-14T06:58:51.993Z,1020.57
2023-05-14T06:59:52.288Z,1020.51
2023-05-14T07:00:52.359Z,1020.59
2023-05-14T07:01:52.583Z,1020.55
2023-05-14T07:02:52.722Z,1020.58
2023-05-14T07:03:52.950Z,1020.59
2023-05-14T07:04:53.069Z,1020.59
2023-05-14T07:05:53.239Z,1020.61
2023-05-14T07:06:53.418Z,1020.59
2023-05-14T07:07:53.569Z,1020.61
2023-05-14T07:08:53.750Z,1020.60
2023-05-14T07:09:53.914Z,1020.59
2023-05-14T07:10:54.098Z,1020.51
2023-05-14T07:11:54.257Z,1020.52
2023-05-14T07:12:54.461Z,1020.52
2023-05-14T07:13:54.623Z,1020.53
2023-05-14T07:14:54.821Z,1020.50
2023-05-14T07:15:54.991Z,1020.50
2023-05-14T07:16:55.218Z,1020.50
2023-05-14T07:17:55.558Z,1020.46
2023-05-14T07:18:55.565Z,1020.47
2023-05-14T07:19:55.691Z,1020.49
2023-05-14T07:20:55.847Z,1020.47
2023-05-14T07:21:56.031Z,1020.52
2023-05-14T07:22:56.218Z,1020.51
2023-05-14T07:23:56.417Z,1020.49
2023-05-14T07:24:56.595Z,1020.45
2023-05-14T07:25:56.766Z,1020.45
2023-05-14T07:26:56.960Z,1020.44
2023-05-14T07:27:57.117Z,1020.44
2023-05-14T07:28:57.318Z,1020.38
2023-05-14T07:29:57.452Z,1020.41
2023-05-14T07:30:57.708Z,1020.40
2023-05-14T07:31:57.780Z,1020.40
2023-05-14T07:32:58.005Z,1020.30
2023-05-14T07:33:58.154Z,1020.35
2023-05-14T07:34:58.329Z,1020.34
2023-05-14T07:35:58.497Z,1020.35
2023-05-14T07:36:58.663Z,1020.35
2023-05-14T07:37:58.841Z,1020.34
2023-05-14T07:38:59.012Z,1020.30
2023-05-14T07:39:59.150Z,1020.27
2023-05-14T07:40:59.322Z,1020.26
2023-05-14T07:41:59.506Z,1020.29
2023-05-14T07:42:59.711Z,1020.30
2023-05-14T07:43:59.846Z,1020.27
2023-05-14T07:45:00.046Z,1020.25
2023-05-14T07:46:00.211Z,1020.28
2023-05-14T07:47:00.459Z,1020.23
2023-05-14T07:48:00.725Z,1020.17
2023-05-14T07:49:00.693Z,1020.17
2023-05-14T07:50:00.894Z,1020.16
2023-05-14T07:51:01.053Z,1020.21
2023-05-14T07:52:01.244Z,1020.19
2023-05-14T07:53:01.412Z,1020.18
2023-05-14T07:54:01.552Z,1020.17
2023-05-14T07:55:01.745Z,1020.17
2023-05-14T07:56:01.923Z,1020.12
2023-05-14T07:57:02.094Z,1020.15
2023-05-14T07:58:02.269Z,1020.08
2023-05-14T07:59:02.440Z,1020.06
2023-05-14T08:00:02.639Z,1020.09
2023-05-14T08:01:02.819Z,1020.07
2023-05-14T08:02:03.026Z,1020.06
2023-05-14T08:03:03.397Z,1020.11
2023-05-14T08:04:03.482Z,1020.08
2023-05-14T08:05:03.483Z,1020.09
2023-05-14T08:06:03.670Z,1020.05
2023-05-14T08:07:03.848Z,1020.07
2023-05-14T08:08:04.023Z,1020.05
2023-05-14T08:09:04.191Z,1020.08
2023-05-14T08:10:04.386Z,1020.02
2023-05-14T08:11:04.647Z,1020.04
2023-05-14T08:12:04.710Z,1020.03
2023-05-14T08:13:04.888Z,1020.09
2023-05-14T08:14:05.051Z,1020.04
2023-05-14T08:15:05.254Z,1020.06
2023-05-14T08:16:05.410Z,1020.03
2023-05-14T08:17:05.658Z,1020.03
2023-05-14T08:18:05.774Z,1019.93
2023-05-14T08:19:05.941Z,1019.99
2023-05-14T08:20:06.125Z,1019.93
2023-05-14T08:21:06.274Z,1019.94
2023-05-14T08:22:06.447Z,1019.92
2023-05-14T08:23:06.626Z,1019.91
2023-05-14T08:24:06.791Z,1019.94
2023-05-14T08:25:06.980Z,1019.90
2023-05-14T08:26:07.150Z,1019.91
2023-05-14T08:27:07.337Z,1019.86
2023-05-14T08:28:07.534Z,1019.87
2023-05-14T08:29:08.762Z,1019.84
2023-05-14T08:30:07.910Z,1019.86
2023-05-14T08:31:08.078Z,1019.83
2023-05-14T08:32:19.378Z,1019.82
2023-05-14T08:33:09.484Z,1019.81
2023-05-14T08:34:08.600Z,1019.80
2023-05-14T08:35:08.788Z,1019.78
2023-05-14T08:36:08.960Z,1019.79
2023-05-14T08:37:09.143Z,1019.75
2023-05-14T08:38:09.326Z,1019.69
2023-05-14T08:39:09.508Z,1019.67
2023-05-14T08:40:09.681Z,1019.64
2023-05-14T08:41:09.856Z,1019.60
2023-05-14T08:42:10.036Z,1019.69
2023-05-14T08:43:10.221Z,1019.68
2023-05-14T08:44:10.398Z,1019.65
2023-05-14T08:45:10.550Z,1019.62
2023-05-14T08:46:10.720Z,1019.60
2023-05-14T08:47:10.907Z,1019.60
2023-05-14T08:48:11.274Z,1019.60
2023-05-14T08:49:11.368Z,1019.64
2023-05-14T08:50:11.462Z,1019.59
2023-05-14T08:51:11.631Z,1019.62
2023-05-14T08:52:11.801Z,1019.63
2023-05-14T08:53:12.010Z,1019.57
2023-05-14T08:54:12.172Z,1019.56
2023-05-14T08:55:12.366Z,1019.50
2023-05-14T08:56:12.524Z,1019.50
2023-05-14T08:57:12.708Z,1019.46
2023-05-14T08:58:12.900Z,1019.47
2023-05-14T08:59:13.091Z,1019.45
2023-05-14T09:00:13.243Z,1019.43
2023-05-14T09:01:13.422Z,1019.40
2023-05-14T09:02:13.762Z,1019.40
2023-05-14T09:03:13.853Z,1019.40
2023-05-14T09:04:14.030Z,1019.42
2023-05-14T09:05:14.139Z,1019.40
2023-05-14T09:06:14.321Z,1019.39
2023-05-14T09:07:14.501Z,1019.39
2023-05-14T09:08:14.642Z,1019.40
2023-05-14T09:09:14.827Z,1019.39
2023-05-14T09:10:15.013Z,1019.42
2023-05-14T09:11:15.180Z,1019.43
2023-05-14T09:12:15.361Z,1019.41
2023-05-14T09:13:15.508Z,1019.38
2023-05-14T09:14:15.666Z,1019.34
2023-05-14T09:15:15.848Z,1019.36
2023-05-14T09:16:16.078Z,1019.36
2023-05-14T09:17:16.191Z,1019.33
2023-05-14T09:18:16.365Z,1019.32
2023-05-14T09:19:16.620Z,1019.33
2023-05-14T09:20:16.732Z,1019.33
2023-05-14T09:21:16.916Z,1019.32
2023-05-14T09:22:17.121Z,1019.25
2023-05-14T09:23:17.272Z,1019.21
2023-05-14T09:24:17.447Z,1019.20
2023-05-14T09:25:17.642Z,1019.16
2023-05-14T09:26:17.836Z,1019.15
2023-05-14T09:27:17.977Z,1019.13
2023-05-14T09:28:18.141Z,1019.07
2023-05-14T09:29:18.311Z,1019.09
2023-05-14T09:30:18.517Z,1019.01
2023-05-14T09:31:18.707Z,1019.08
2023-05-14T09:32:18.840Z,1019.01
2023-05-14T09:33:19.014Z,1019.08
2023-05-14T09:34:19.203Z,1019.03
2023-05-14T09:35:19.384Z,1019.04
2023-05-14T09:36:19.550Z,1019.13
2023-05-14T09:37:19.728Z,1019.02
2023-05-14T09:38:19.898Z,1019.05
2023-05-14T09:39:20.089Z,1019.04
2023-05-14T09:40:20.335Z,1019.00
2023-05-14T09:41:20.448Z,1019.04
2023-05-14T09:42:20.626Z,1019.02
2023-05-14T09:43:20.811Z,1018.96
2023-05-14T09:44:20.996Z,1018.95
2023-05-14T09:45:21.242Z,1018.89
2023-05-14T09:46:21.353Z,1018.90
2023-05-14T09:47:21.543Z,1018.85
2023-05-14T09:48:21.723Z,1018.90
2023-05-14T09:49:21.851Z,1018.87
2023-05-14T09:50:22.185Z,1018.74
2023-05-14T09:51:22.201Z,1018.71
2023-05-14T09:52:22.378Z,1018.69
2023-05-14T09:53:22.583Z,1018.76
2023-05-14T09:54:22.723Z,1018.72
2023-05-14T09:55:22.893Z,1018.68
2023-05-14T09:56:23.067Z,1018.70
2023-05-14T09:57:23.245Z,1018.64
2023-05-14T09:58:23.458Z,1018.67
2023-05-14T09:59:23.631Z,1018.66
2023-05-14T10:00:23.940Z,1018.63
2023-05-14T10:01:23.964Z,1018.54
2023-05-14T10:02:24.180Z,1018.66
2023-05-14T10:03:24.318Z,1018.63
2023-05-14T10:04:24.512Z,1018.68
2023-05-14T10:05:24.654Z,1018.60
2023-05-14T10:06:24.824Z,1018.55
2023-05-14T10:07:24.999Z,1018.59
2023-05-14T10:08:25.190Z,1018.59
2023-05-14T10:09:25.365Z,1018.52
2023-05-14T10:10:25.791Z,1018.55
2023-05-14T10:11:25.750Z,1018.56
2023-05-14T10:12:25.912Z,1018.37
2023-05-14T10:13:26.112Z,1018.56
2023-05-14T10:14:26.258Z,1018.49
2023-05-14T10:15:26.490Z,1018.44
2023-05-14T10:16:26.624Z,1018.42
2023-05-14T10:17:26.824Z,1018.37
2023-05-14T10:18:26.978Z,1018.28
2023-05-14T10:19:27.229Z,1018.28
2023-05-14T10:20:27.309Z,1018.41
2023-05-14T10:21:27.499Z,1018.25
2023-05-14T10:22:27.638Z,1018.25
2023-05-14T10:23:27.798Z,1018.31
2023-05-14T10:24:27.962Z,1018.27
2023-05-14T10:25:28.174Z,1018.27
2023-05-14T10:26:28.347Z,1018.23
2023-05-14T10:27:28.526Z,1018.21
2023-05-14T10:28:28.687Z,1018.26
2023-05-14T10:29:28.837Z,1018.26
2023-05-14T10:30:29.001Z,1018.17
2023-05-14T10:31:29.220Z,1018.14
2023-05-14T10:32:29.425Z,1018.13
2023-05-14T10:33:29.541Z,1018.17
2023-05-14T10:34:29.682Z,1018.18
2023-05-14T10:35:29.858Z,1018.24
2023-05-14T10:36:30.005Z,1018.29
2023-05-14T10:37:30.180Z,1018.25
2023-05-14T10:38:30.344Z,1018.26
2023-05-14T10:39:30.552Z,1018.24
2023-05-14T10:40:30.707Z,1018.23
2023-05-14T10:41:30.871Z,1018.19
2023-05-14T10:42:31.039Z,1018.22
2023-05-14T10:43:31.284Z,1018.29
2023-05-14T10:44:31.420Z,1018.26
2023-05-14T10:45:31.551Z,1018.24
2023-05-14T10:46:31.768Z,1018.22
2023-05-14T10:47:31.964Z,1018.28
2023-05-14T10:48:32.088Z,1018.25
2023-05-14T10:49:42.714Z,1018.24
2023-05-14T10:50:33.417Z,1018.27
2023-05-14T10:51:32.649Z,1018.26
2023-05-14T10:52:32.806Z,1018.22
2023-05-14T10:53:32.969Z,1018.22
2023-05-14T10:54:33.139Z,1018.22
2023-05-14T10:55:33.310Z,1018.22
2023-05-14T10:56:33.571Z,1018.25
2023-05-14T10:57:33.646Z,1018.17
2023-05-14T10:58:33.853Z,1018.23
2023-05-14T10:59:33.998Z,1018.23
2023-05-14T11:00:34.172Z,1018.24
2023-05-14T11:01:34.408Z,1018.22
2023-05-14T11:02:34.531Z,1018.27
2023-05-14T11:03:34.787Z,1018.25
2023-05-14T11:04:34.869Z,1018.28
2023-05-14T11:05:35.039Z,1018.25
2023-05-14T11:06:35.208Z,1018.24
2023-05-14T11:07:35.393Z,1018.27
2023-05-14T11:08:35.579Z,1018.25
2023-05-14T11:09:35.713Z,1018.23
2023-05-14T11:10:35.890Z,1018.22
2023-05-14T11:11:36.057Z,1018.25
2023-05-14T11:12:36.264Z,1018.23
2023-05-14T11:13:36.440Z,1018.23
2023-05-14T11:14:36.587Z,1018.24
2023-05-14T11:15:36.760Z,1018.23
2023-05-14T11:16:36.961Z,1018.17
2023-05-14T11:17:37.223Z,1018.16
2023-05-14T11:18:37.321Z,1018.11
2023-05-14T11:19:37.463Z,1018.11
2023-05-14T11:20:37.635Z,1018.12
2023-05-14T11:21:37.895Z,1018.11
2023-05-14T11:22:38.006Z,1018.10
2023-05-14T11:23:38.179Z,1018.04
2023-05-14T11:24:38.351Z,1018.07
2023-05-14T11:25:38.532Z,1018.03
2023-05-14T11:26:38.771Z,1018.07
2023-05-14T11:27:38.876Z,1017.99
2023-05-14T11:28:39.062Z,1017.99
2023-05-14T11:29:39.202Z,1017.98
2023-05-14T11:30:39.400Z,1017.97
2023-05-14T11:31:39.710Z,1017.95
2023-05-14T11:32:39.772Z,1017.94
2023-05-14T11:33:39.871Z,1017.92
2023-05-14T11:34:40.081Z,1017.93
2023-05-14T11:35:40.243Z,1017.90
2023-05-14T11:36:40.380Z,1017.89
2023-05-14T11:37:40.560Z,1017.86
2023-05-14T11:38:40.745Z,1017.84
2023-05-14T11:39:40.907Z,1017.80
2023-05-14T11:40:41.095Z,1017.82
2023-05-14T11:41:41.252Z,1017.79
2023-05-14T11:42:41.432Z,1017.77
2023-05-14T11:43:41.595Z,1017.79
2023-05-14T11:44:41.794Z,1017.78
2023-05-14T11:45:41.981Z,1017.71
2023-05-14T11:46:42.178Z,1017.71
2023-05-14T11:47:42.317Z,1017.71
2023-05-14T11:48:42.444Z,1017.70
2023-05-14T11:49:42.637Z,1017.71
2023-05-14T11:50:42.792Z,1017.65
2023-05-14T11:51:42.948Z,1017.66
2023-05-14T11:52:43.169Z,1017.65
2023-05-14T11:53:43.304Z,1017.67
2023-05-14T11:57:21.246Z,1017.60
2023-05-14T11:58:12.507Z,1017.59
2023-05-14T11:59:12.681Z,1017.59
2023-05-14T12:00:12.834Z,1017.55
2023-05-14T12:01:13.027Z,1017.52
2023-05-14T12:02:13.302Z,1017.51
2023-05-14T12:03:13.427Z,1017.52
2023-05-14T12:04:13.564Z,1017.54
2023-05-14T12:05:13.734Z,1017.48
2023-05-14T12:06:13.864Z,1017.51
2023-05-14T12:07:14.037Z,1017.47
2023-05-14T12:08:14.201Z,1017.44
2023-05-14T12:09:14.365Z,1017.45
2023-05-14T12:10:14.545Z,1017.41